sensor_id;sensor_type;location;lat;lon;timestamp;P1;durP1;ratioP1;P2;durP2;ratioP2
77430;SDS011;66498;48.564;19.272;2023-09-18T00:00:13;23.25;;;19.48;;
77430;SDS011;66498;48.564;19.272;2023-09-18T00:02:39;24.58;;;21.17;;
77430;SDS011;66498;48.564;19.272;2023-09-18T00:05:05;24.95;;;20.83;;
77430;SDS011;66498;48.564;19.272;2023-09-18T00:07:30;25.63;;;21.30;;
77430;SDS011;66498;48.564;19.272;2023-09-18T00:09:56;23.60;;;20.38;;
77430;SDS011;66498;48.564;19.272;2023-09-18T00:12:21;24.10;;;21.48;;
77430;SDS011;66498;48.564;19.272;2023-09-18T00:14:47;23.98;;;20.02;;
77430;SDS011;66498;48.564;19.272;2023-09-18T00:17:14;23.17;;;20.48;;
77430;SDS011;66498;48.564;19.272;2023-09-18T00:19:41;24.77;;;21.00;;
77430;SDS011;66498;48.564;19.272;2023-09-18T00:22:07;23.38;;;20.80;;
77430;SDS011;66498;48.564;19.272;2023-09-18T00:24:33;23.30;;;20.90;;
77430;SDS011;66498;48.564;19.272;2023-09-18T00:26:59;24.02;;;20.25;;
77430;SDS011;66498;48.564;19.272;2023-09-18T00:29:24;23.50;;;20.83;;
77430;SDS011;66498;48.564;19.272;2023-09-18T00:31:50;23.25;;;20.20;;
77430;SDS011;66498;48.564;19.272;2023-09-18T00:34:16;23.13;;;20.63;;
77430;SDS011;66498;48.564;19.272;2023-09-18T00:36:41;22.67;;;20.33;;
77430;SDS011;66498;48.564;19.272;2023-09-18T00:39:07;23.52;;;21.00;;
77430;SDS011;66498;48.564;19.272;2023-09-18T00:41:33;26.02;;;23.05;;
77430;SDS011;66498;48.564;19.272;2023-09-18T00:43:58;24.85;;;22.10;;
77430;SDS011;66498;48.564;19.272;2023-09-18T00:46:24;30.27;;;23.42;;
77430;SDS011;66498;48.564;19.272;2023-09-18T00:48:51;27.95;;;21.38;;
77430;SDS011;66498;48.564;19.272;2023-09-18T00:51:17;24.40;;;21.45;;
77430;SDS011;66498;48.564;19.272;2023-09-18T00:53:44;23.85;;;21.20;;
77430;SDS011;66498;48.564;19.272;2023-09-18T00:56:13;23.92;;;21.33;;
77430;SDS011;66498;48.564;19.272;2023-09-18T00:58:39;23.77;;;21.10;;
77430;SDS011;66498;48.564;19.272;2023-09-18T01:01:06;24.13;;;20.15;;
77430;SDS011;66498;48.564;19.272;2023-09-18T01:03:31;23.73;;;20.63;;
77430;SDS011;66498;48.564;19.272;2023-09-18T01:05:57;22.83;;;19.92;;
77430;SDS011;66498;48.564;19.272;2023-09-18T01:08:23;22.20;;;18.58;;
77430;SDS011;66498;48.564;19.272;2023-09-18T01:13:56;24.67;;;20.17;;
77430;SDS011;66498;48.564;19.272;2023-09-18T01:16:34;20.75;;;18.55;;
77430;SDS011;66498;48.564;19.272;2023-09-18T01:19:10;21.38;;;18.33;;
77430;SDS011;66498;48.564;19.272;2023-09-18T01:21:36;18.08;;;16.20;;
77430;SDS011;66498;48.564;19.272;2023-09-18T01:24:02;15.85;;;14.05;;
77430;SDS011;66498;48.564;19.272;2023-09-18T01:26:28;16.92;;;15.18;;
77430;SDS011;66498;48.564;19.272;2023-09-18T01:28:53;17.02;;;15.23;;
77430;SDS011;66498;48.564;19.272;2023-09-18T01:31:19;16.45;;;14.73;;
77430;SDS011;66498;48.564;19.272;2023-09-18T01:33:45;16.10;;;14.40;;
77430;SDS011;66498;48.564;19.272;2023-09-18T01:36:12;16.85;;;15.00;;
77430;SDS011;66498;48.564;19.272;2023-09-18T01:38:39;17.33;;;15.52;;
77430;SDS011;66498;48.564;19.272;2023-09-18T01:41:06;16.88;;;15.15;;
77430;SDS011;66498;48.564;19.272;2023-09-18T01:43:32;17.85;;;15.85;;
77430;SDS011;66498;48.564;19.272;2023-09-18T01:45:58;17.65;;;15.85;;
77430;SDS011;66498;48.564;19.272;2023-09-18T01:48:23;20.17;;;15.05;;
77430;SDS011;66498;48.564;19.272;2023-09-18T01:50:48;16.67;;;14.95;;
77430;SDS011;66498;48.564;19.272;2023-09-18T01:53:14;16.92;;;14.85;;
77430;SDS011;66498;48.564;19.272;2023-09-18T01:55:39;16.50;;;14.70;;
77430;SDS011;66498;48.564;19.272;2023-09-18T01:58:06;16.88;;;15.18;;
77430;SDS011;66498;48.564;19.272;2023-09-18T02:00:32;19.27;;;15.93;;
77430;SDS011;66498;48.564;19.272;2023-09-18T02:02:58;18.67;;;14.88;;
77430;SDS011;66498;48.564;19.272;2023-09-18T02:05:24;18.38;;;16.35;;
77430;SDS011;66498;48.564;19.272;2023-09-18T02:07:50;21.85;;;17.48;;
77430;SDS011;66498;48.564;19.272;2023-09-18T02:10:15;22.15;;;19.00;;
77430;SDS011;66498;48.564;19.272;2023-09-18T02:12:41;22.08;;;19.45;;
77430;SDS011;66498;48.564;19.272;2023-09-18T02:15:08;21.30;;;18.63;;
77430;SDS011;66498;48.564;19.272;2023-09-18T02:17:36;19.17;;;17.17;;
77430;SDS011;66498;48.564;19.272;2023-09-18T02:20:02;17.10;;;15.27;;
77430;SDS011;66498;48.564;19.272;2023-09-18T02:22:32;18.80;;;16.80;;
77430;SDS011;66498;48.564;19.272;2023-09-18T02:24:58;22.42;;;17.35;;
77430;SDS011;66498;48.564;19.272;2023-09-18T02:27:23;20.70;;;17.98;;
77430;SDS011;66498;48.564;19.272;2023-09-18T02:29:49;20.48;;;17.77;;
77430;SDS011;66498;48.564;19.272;2023-09-18T02:32:15;28.92;;;18.30;;
77430;SDS011;66498;48.564;19.272;2023-09-18T02:34:41;25.38;;;16.90;;
77430;SDS011;66498;48.564;19.272;2023-09-18T02:37:06;24.27;;;16.60;;
77430;SDS011;66498;48.564;19.272;2023-09-18T02:39:32;24.60;;;16.23;;
77430;SDS011;66498;48.564;19.272;2023-09-18T02:41:58;22.25;;;16.40;;
77430;SDS011;66498;48.564;19.272;2023-09-18T02:44:23;19.58;;;15.80;;
77430;SDS011;66498;48.564;19.272;2023-09-18T02:46:49;26.77;;;16.92;;
77430;SDS011;66498;48.564;19.272;2023-09-18T02:49:14;24.42;;;16.70;;
77430;SDS011;66498;48.564;19.272;2023-09-18T02:51:40;15.85;;;14.15;;
77430;SDS011;66498;48.564;19.272;2023-09-18T02:54:06;20.65;;;14.35;;
77430;SDS011;66498;48.564;19.272;2023-09-18T02:56:31;16.60;;;14.23;;
77430;SDS011;66498;48.564;19.272;2023-09-18T02:58:57;24.83;;;16.48;;
77430;SDS011;66498;48.564;19.272;2023-09-18T03:01:22;23.80;;;15.70;;
77430;SDS011;66498;48.564;19.272;2023-09-18T03:03:48;17.35;;;15.05;;
77430;SDS011;66498;48.564;19.272;2023-09-18T03:06:14;24.10;;;18.98;;
77430;SDS011;66498;48.564;19.272;2023-09-18T03:08:41;25.77;;;19.80;;
77430;SDS011;66498;48.564;19.272;2023-09-18T03:11:13;29.25;;;19.90;;
77430;SDS011;66498;48.564;19.272;2023-09-18T03:13:46;32.38;;;21.85;;
77430;SDS011;66498;48.564;19.272;2023-09-18T03:18:40;32.95;;;20.60;;
77430;SDS011;66498;48.564;19.272;2023-09-18T03:21:06;25.42;;;19.63;;
77430;SDS011;66498;48.564;19.272;2023-09-18T03:23:32;23.23;;;18.52;;
77430;SDS011;66498;48.564;19.272;2023-09-18T03:25:57;22.92;;;19.30;;
77430;SDS011;66498;48.564;19.272;2023-09-18T03:28:24;21.73;;;17.17;;
77430;SDS011;66498;48.564;19.272;2023-09-18T03:30:51;20.08;;;17.90;;
77430;SDS011;66498;48.564;19.272;2023-09-18T03:33:16;19.25;;;17.25;;
77430;SDS011;66498;48.564;19.272;2023-09-18T03:35:50;21.73;;;18.23;;
77430;SDS011;66498;48.564;19.272;2023-09-18T03:38:19;22.80;;;18.77;;
77430;SDS011;66498;48.564;19.272;2023-09-18T03:40:46;20.27;;;18.17;;
77430;SDS011;66498;48.564;19.272;2023-09-18T03:43:12;19.80;;;17.60;;
77430;SDS011;66498;48.564;19.272;2023-09-18T03:45:38;21.08;;;18.85;;
77430;SDS011;66498;48.564;19.272;2023-09-18T03:48:05;21.63;;;18.60;;
77430;SDS011;66498;48.564;19.272;2023-09-18T03:50:31;28.42;;;19.95;;
77430;SDS011;66498;48.564;19.272;2023-09-18T03:52:58;24.45;;;19.98;;
77430;SDS011;66498;48.564;19.272;2023-09-18T03:55:24;22.98;;;20.50;;
77430;SDS011;66498;48.564;19.272;2023-09-18T03:57:51;21.52;;;18.77;;
77430;SDS011;66498;48.564;19.272;2023-09-18T04:00:17;22.00;;;19.10;;
77430;SDS011;66498;48.564;19.272;2023-09-18T04:02:43;24.90;;;19.00;;
77430;SDS011;66498;48.564;19.272;2023-09-18T04:05:09;29.08;;;20.33;;
77430;SDS011;66498;48.564;19.272;2023-09-18T04:07:36;29.00;;;21.25;;
77430;SDS011;66498;48.564;19.272;2023-09-18T04:10:01;36.63;;;22.23;;
77430;SDS011;66498;48.564;19.272;2023-09-18T04:12:28;35.03;;;22.02;;
77430;SDS011;66498;48.564;19.272;2023-09-18T04:14:54;31.55;;;22.15;;
77430;SDS011;66498;48.564;19.272;2023-09-18T04:17:19;34.00;;;21.88;;
77430;SDS011;66498;48.564;19.272;2023-09-18T04:19:46;30.15;;;22.25;;
77430;SDS011;66498;48.564;19.272;2023-09-18T04:22:12;25.60;;;20.65;;
77430;SDS011;66498;48.564;19.272;2023-09-18T04:24:37;25.60;;;20.50;;
77430;SDS011;66498;48.564;19.272;2023-09-18T04:27:03;28.50;;;21.17;;
77430;SDS011;66498;48.564;19.272;2023-09-18T04:29:28;31.67;;;22.73;;
77430;SDS011;66498;48.564;19.272;2023-09-18T04:31:54;30.27;;;22.10;;
77430;SDS011;66498;48.564;19.272;2023-09-18T04:34:20;25.40;;;21.25;;
77430;SDS011;66498;48.564;19.272;2023-09-18T04:36:46;23.63;;;20.25;;
77430;SDS011;66498;48.564;19.272;2023-09-18T04:39:12;22.85;;;19.27;;
77430;SDS011;66498;48.564;19.272;2023-09-18T04:41:39;27.50;;;19.73;;
77430;SDS011;66498;48.564;19.272;2023-09-18T04:44:04;23.42;;;19.83;;
77430;SDS011;66498;48.564;19.272;2023-09-18T04:46:32;24.88;;;20.02;;
77430;SDS011;66498;48.564;19.272;2023-09-18T04:48:59;22.73;;;20.17;;
77430;SDS011;66498;48.564;19.272;2023-09-18T04:51:25;23.10;;;20.00;;
77430;SDS011;66498;48.564;19.272;2023-09-18T04:53:51;24.52;;;19.15;;
77430;SDS011;66498;48.564;19.272;2023-09-18T04:56:17;22.85;;;19.00;;
77430;SDS011;66498;48.564;19.272;2023-09-18T04:58:43;21.33;;;18.42;;
77430;SDS011;66498;48.564;19.272;2023-09-18T05:01:11;20.90;;;18.60;;
77430;SDS011;66498;48.564;19.272;2023-09-18T05:03:36;25.40;;;18.50;;
77430;SDS011;66498;48.564;19.272;2023-09-18T05:06:03;23.85;;;19.45;;
77430;SDS011;66498;48.564;19.272;2023-09-18T05:08:29;21.98;;;18.92;;
77430;SDS011;66498;48.564;19.272;2023-09-18T05:10:56;20.25;;;18.08;;
77430;SDS011;66498;48.564;19.272;2023-09-18T05:13:22;19.23;;;17.20;;
77430;SDS011;66498;48.564;19.272;2023-09-18T05:15:48;18.42;;;16.48;;
77430;SDS011;66498;48.564;19.272;2023-09-18T05:18:16;19.58;;;17.52;;
77430;SDS011;66498;48.564;19.272;2023-09-18T05:20:41;19.63;;;16.60;;
77430;SDS011;66498;48.564;19.272;2023-09-18T05:23:07;20.75;;;17.38;;
77430;SDS011;66498;48.564;19.272;2023-09-18T05:25:33;21.17;;;18.08;;
77430;SDS011;66498;48.564;19.272;2023-09-18T05:28:03;18.13;;;16.23;;
77430;SDS011;66498;48.564;19.272;2023-09-18T05:30:31;18.63;;;16.73;;
77430;SDS011;66498;48.564;19.272;2023-09-18T05:32:59;19.73;;;17.25;;
77430;SDS011;66498;48.564;19.272;2023-09-18T05:37:58;19.52;;;17.42;;
77430;SDS011;66498;48.564;19.272;2023-09-18T05:40:25;19.10;;;16.73;;
77430;SDS011;66498;48.564;19.272;2023-09-18T05:42:53;18.83;;;15.60;;
77430;SDS011;66498;48.564;19.272;2023-09-18T05:45:19;18.65;;;16.63;;
77430;SDS011;66498;48.564;19.272;2023-09-18T05:47:44;20.52;;;15.98;;
77430;SDS011;66498;48.564;19.272;2023-09-18T05:50:11;18.77;;;16.73;;
77430;SDS011;66498;48.564;19.272;2023-09-18T05:52:40;19.17;;;17.17;;
77430;SDS011;66498;48.564;19.272;2023-09-18T05:55:07;22.33;;;17.45;;
77430;SDS011;66498;48.564;19.272;2023-09-18T05:57:33;19.48;;;17.38;;
77430;SDS011;66498;48.564;19.272;2023-09-18T05:59:59;19.63;;;16.90;;
77430;SDS011;66498;48.564;19.272;2023-09-18T06:02:25;19.48;;;17.00;;
77430;SDS011;66498;48.564;19.272;2023-09-18T06:04:57;20.52;;;16.27;;
77430;SDS011;66498;48.564;19.272;2023-09-18T06:07:28;19.98;;;16.70;;
77430;SDS011;66498;48.564;19.272;2023-09-18T06:09:55;20.13;;;16.35;;
77430;SDS011;66498;48.564;19.272;2023-09-18T06:12:22;17.90;;;16.10;;
77430;SDS011;66498;48.564;19.272;2023-09-18T06:14:48;17.85;;;15.15;;
77430;SDS011;66498;48.564;19.272;2023-09-18T06:17:15;19.23;;;15.80;;
77430;SDS011;66498;48.564;19.272;2023-09-18T06:19:42;20.25;;;15.30;;
77430;SDS011;66498;48.564;19.272;2023-09-18T06:22:11;16.58;;;14.77;;
77430;SDS011;66498;48.564;19.272;2023-09-18T06:24:36;20.98;;;16.20;;
77430;SDS011;66498;48.564;19.272;2023-09-18T06:27:02;18.00;;;15.32;;
77430;SDS011;66498;48.564;19.272;2023-09-18T06:29:32;19.88;;;15.30;;
77430;SDS011;66498;48.564;19.272;2023-09-18T06:31:58;16.40;;;13.98;;
77430;SDS011;66498;48.564;19.272;2023-09-18T06:34:24;15.55;;;13.85;;
77430;SDS011;66498;48.564;19.272;2023-09-18T06:36:50;14.25;;;12.68;;
77430;SDS011;66498;48.564;19.272;2023-09-18T06:39:15;16.05;;;13.43;;
77430;SDS011;66498;48.564;19.272;2023-09-18T06:41:41;14.77;;;12.77;;
77430;SDS011;66498;48.564;19.272;2023-09-18T06:44:07;12.82;;;11.48;;
77430;SDS011;66498;48.564;19.272;2023-09-18T06:46:32;13.23;;;11.32;;
77430;SDS011;66498;48.564;19.272;2023-09-18T06:48:58;12.00;;;10.60;;
77430;SDS011;66498;48.564;19.272;2023-09-18T06:51:25;13.98;;;11.30;;
77430;SDS011;66498;48.564;19.272;2023-09-18T06:53:51;11.57;;;10.02;;
77430;SDS011;66498;48.564;19.272;2023-09-18T06:56:18;11.90;;;9.20;;
77430;SDS011;66498;48.564;19.272;2023-09-18T06:58:43;10.00;;;8.88;;
77430;SDS011;66498;48.564;19.272;2023-09-18T07:01:09;12.60;;;8.48;;
77430;SDS011;66498;48.564;19.272;2023-09-18T07:03:35;11.07;;;8.50;;
77430;SDS011;66498;48.564;19.272;2023-09-18T07:06:01;8.93;;;7.93;;
77430;SDS011;66498;48.564;19.272;2023-09-18T07:08:27;10.10;;;8.43;;
77430;SDS011;66498;48.564;19.272;2023-09-18T07:10:53;10.48;;;8.10;;
77430;SDS011;66498;48.564;19.272;2023-09-18T07:13:19;10.07;;;8.40;;
77430;SDS011;66498;48.564;19.272;2023-09-18T07:15:44;10.55;;;8.02;;
77430;SDS011;66498;48.564;19.272;2023-09-18T07:18:10;10.80;;;8.15;;
77430;SDS011;66498;48.564;19.272;2023-09-18T07:20:48;9.30;;;7.35;;
77430;SDS011;66498;48.564;19.272;2023-09-18T07:23:13;10.35;;;7.90;;
77430;SDS011;66498;48.564;19.272;2023-09-18T07:25:39;9.18;;;7.35;;
77430;SDS011;66498;48.564;19.272;2023-09-18T07:28:08;13.05;;;8.18;;
77430;SDS011;66498;48.564;19.272;2023-09-18T07:30:38;9.30;;;7.75;;
77430;SDS011;66498;48.564;19.272;2023-09-18T07:33:03;11.93;;;7.53;;
77430;SDS011;66498;48.564;19.272;2023-09-18T07:35:30;9.32;;;7.18;;
77430;SDS011;66498;48.564;19.272;2023-09-18T07:37:55;10.27;;;7.47;;
77430;SDS011;66498;48.564;19.272;2023-09-18T07:40:22;9.00;;;7.10;;
77430;SDS011;66498;48.564;19.272;2023-09-18T07:42:48;7.35;;;6.45;;
77430;SDS011;66498;48.564;19.272;2023-09-18T07:45:13;8.10;;;6.90;;
77430;SDS011;66498;48.564;19.272;2023-09-18T07:47:39;9.85;;;6.57;;
77430;SDS011;66498;48.564;19.272;2023-09-18T07:50:05;10.55;;;7.82;;
77430;SDS011;66498;48.564;19.272;2023-09-18T07:52:31;9.65;;;7.47;;
77430;SDS011;66498;48.564;19.272;2023-09-18T07:54:57;11.20;;;7.18;;
77430;SDS011;66498;48.564;19.272;2023-09-18T07:57:23;8.63;;;7.00;;
77430;SDS011;66498;48.564;19.272;2023-09-18T07:59:49;9.07;;;7.05;;
77430;SDS011;66498;48.564;19.272;2023-09-18T08:02:15;9.73;;;6.93;;
77430;SDS011;66498;48.564;19.272;2023-09-18T08:04:43;9.13;;;7.00;;
77430;SDS011;66498;48.564;19.272;2023-09-18T08:07:08;13.05;;;6.80;;
77430;SDS011;66498;48.564;19.272;2023-09-18T08:09:34;8.98;;;6.63;;
77430;SDS011;66498;48.564;19.272;2023-09-18T08:12:04;8.15;;;6.75;;
77430;SDS011;66498;48.564;19.272;2023-09-18T08:14:31;10.80;;;6.88;;
77430;SDS011;66498;48.564;19.272;2023-09-18T08:17:00;8.80;;;6.80;;
77430;SDS011;66498;48.564;19.272;2023-09-18T08:19:26;7.80;;;6.28;;
77430;SDS011;66498;48.564;19.272;2023-09-18T08:21:55;8.35;;;6.90;;
77430;SDS011;66498;48.564;19.272;2023-09-18T08:24:26;8.77;;;6.40;;
77430;SDS011;66498;48.564;19.272;2023-09-18T08:26:52;8.77;;;6.65;;
77430;SDS011;66498;48.564;19.272;2023-09-18T08:29:19;9.02;;;6.55;;
77430;SDS011;66498;48.564;19.272;2023-09-18T08:31:44;7.68;;;6.13;;
77430;SDS011;66498;48.564;19.272;2023-09-18T08:34:10;7.70;;;6.45;;
77430;SDS011;66498;48.564;19.272;2023-09-18T08:36:36;10.85;;;6.50;;
77430;SDS011;66498;48.564;19.272;2023-09-18T08:39:01;8.18;;;6.78;;
77430;SDS011;66498;48.564;19.272;2023-09-18T08:41:31;8.52;;;6.53;;
77430;SDS011;66498;48.564;19.272;2023-09-18T08:44:01;7.65;;;6.65;;
77430;SDS011;66498;48.564;19.272;2023-09-18T08:46:29;9.70;;;6.50;;
77430;SDS011;66498;48.564;19.272;2023-09-18T08:48:55;8.65;;;7.10;;
77430;SDS011;66498;48.564;19.272;2023-09-18T08:51:22;9.07;;;7.10;;
77430;SDS011;66498;48.564;19.272;2023-09-18T08:53:48;8.48;;;6.60;;
77430;SDS011;66498;48.564;19.272;2023-09-18T08:56:14;11.50;;;7.53;;
77430;SDS011;66498;48.564;19.272;2023-09-18T08:58:42;8.38;;;7.10;;
77430;SDS011;66498;48.564;19.272;2023-09-18T09:01:08;8.68;;;7.35;;
77430;SDS011;66498;48.564;19.272;2023-09-18T09:03:38;7.97;;;6.97;;
77430;SDS011;66498;48.564;19.272;2023-09-18T09:06:05;8.27;;;6.97;;
77430;SDS011;66498;48.564;19.272;2023-09-18T09:08:32;8.60;;;7.68;;
77430;SDS011;66498;48.564;19.272;2023-09-18T09:10:59;8.48;;;7.57;;
77430;SDS011;66498;48.564;19.272;2023-09-18T09:13:25;8.98;;;7.30;;
77430;SDS011;66498;48.564;19.272;2023-09-18T09:15:52;10.15;;;7.65;;
77430;SDS011;66498;48.564;19.272;2023-09-18T09:18:21;9.00;;;7.10;;
77430;SDS011;66498;48.564;19.272;2023-09-18T09:23:23;9.80;;;7.60;;
77430;SDS011;66498;48.564;19.272;2023-09-18T09:25:49;8.30;;;7.40;;
77430;SDS011;66498;48.564;19.272;2023-09-18T09:28:15;8.00;;;7.00;;
77430;SDS011;66498;48.564;19.272;2023-09-18T09:30:42;8.27;;;7.40;;
77430;SDS011;66498;48.564;19.272;2023-09-18T09:33:10;10.10;;;7.18;;
77430;SDS011;66498;48.564;19.272;2023-09-18T09:35:37;8.07;;;7.28;;
77430;SDS011;66498;48.564;19.272;2023-09-18T09:38:11;9.70;;;7.72;;
77430;SDS011;66498;48.564;19.272;2023-09-18T09:40:39;8.65;;;7.10;;
77430;SDS011;66498;48.564;19.272;2023-09-18T09:43:07;8.95;;;7.45;;
77430;SDS011;66498;48.564;19.272;2023-09-18T09:45:34;11.15;;;7.30;;
77430;SDS011;66498;48.564;19.272;2023-09-18T09:48:01;7.82;;;6.95;;
77430;SDS011;66498;48.564;19.272;2023-09-18T09:50:29;11.27;;;7.00;;
77430;SDS011;66498;48.564;19.272;2023-09-18T09:52:56;8.98;;;7.45;;
77430;SDS011;66498;48.564;19.272;2023-09-18T09:55:26;8.60;;;7.30;;
77430;SDS011;66498;48.564;19.272;2023-09-18T09:58:03;9.90;;;8.13;;
77430;SDS011;66498;48.564;19.272;2023-09-18T10:00:40;10.50;;;8.00;;
77430;SDS011;66498;48.564;19.272;2023-09-18T10:03:11;9.98;;;7.75;;
77430;SDS011;66498;48.564;19.272;2023-09-18T10:05:39;8.73;;;7.60;;
77430;SDS011;66498;48.564;19.272;2023-09-18T10:08:14;10.80;;;7.57;;
77430;SDS011;66498;48.564;19.272;2023-09-18T10:10:43;9.30;;;7.40;;
77430;SDS011;66498;48.564;19.272;2023-09-18T10:13:32;9.90;;;7.78;;
77430;SDS011;66498;48.564;19.272;2023-09-18T10:16:01;10.00;;;7.75;;
77430;SDS011;66498;48.564;19.272;2023-09-18T10:21:27;10.55;;;7.55;;
77430;SDS011;66498;48.564;19.272;2023-09-18T10:24:25;9.75;;;7.55;;
77430;SDS011;66498;48.564;19.272;2023-09-18T10:26:57;9.45;;;7.80;;
77430;SDS011;66498;48.564;19.272;2023-09-18T10:29:26;9.90;;;7.35;;
77430;SDS011;66498;48.564;19.272;2023-09-18T10:31:53;9.90;;;8.23;;
77430;SDS011;66498;48.564;19.272;2023-09-18T10:34:20;12.43;;;7.50;;
77430;SDS011;66498;48.564;19.272;2023-09-18T10:36:49;8.07;;;6.80;;
77430;SDS011;66498;48.564;19.272;2023-09-18T10:39:18;8.55;;;7.65;;
77430;SDS011;66498;48.564;19.272;2023-09-18T10:41:52;9.75;;;7.30;;
77430;SDS011;66498;48.564;19.272;2023-09-18T10:44:19;11.57;;;7.80;;
77430;SDS011;66498;48.564;19.272;2023-09-18T10:46:45;9.63;;;7.63;;
77430;SDS011;66498;48.564;19.272;2023-09-18T10:49:13;8.88;;;7.75;;
77430;SDS011;66498;48.564;19.272;2023-09-18T10:51:40;10.18;;;7.70;;
77430;SDS011;66498;48.564;19.272;2023-09-18T10:54:10;8.45;;;7.38;;
77430;SDS011;66498;48.564;19.272;2023-09-18T10:56:40;9.18;;;7.80;;
77430;SDS011;66498;48.564;19.272;2023-09-18T10:59:07;11.50;;;7.93;;
77430;SDS011;66498;48.564;19.272;2023-09-18T11:01:34;9.55;;;7.43;;
77430;SDS011;66498;48.564;19.272;2023-09-18T11:04:02;9.80;;;7.68;;
77430;SDS011;66498;48.564;19.272;2023-09-18T11:06:33;10.52;;;7.90;;
77430;SDS011;66498;48.564;19.272;2023-09-18T11:09:27;9.85;;;8.18;;
77430;SDS011;66498;48.564;19.272;2023-09-18T11:17:30;10.13;;;7.97;;
77430;SDS011;66498;48.564;19.272;2023-09-18T11:20:07;8.90;;;7.53;;
77430;SDS011;66498;48.564;19.272;2023-09-18T11:28:02;12.55;;;8.20;;
77430;SDS011;66498;48.564;19.272;2023-09-18T11:30:33;9.15;;;7.97;;
77430;SDS011;66498;48.564;19.272;2023-09-18T11:33:04;13.15;;;8.05;;
77430;SDS011;66498;48.564;19.272;2023-09-18T11:35:31;8.68;;;7.70;;
77430;SDS011;66498;48.564;19.272;2023-09-18T11:38:08;9.77;;;7.47;;
77430;SDS011;66498;48.564;19.272;2023-09-18T11:40:36;9.35;;;8.35;;
77430;SDS011;66498;48.564;19.272;2023-09-18T11:45:51;9.18;;;8.18;;
77430;SDS011;66498;48.564;19.272;2023-09-18T11:48:19;11.25;;;7.53;;
77430;SDS011;66498;48.564;19.272;2023-09-18T11:50:45;10.23;;;7.40;;
77430;SDS011;66498;48.564;19.272;2023-09-18T11:53:16;9.55;;;7.45;;
77430;SDS011;66498;48.564;19.272;2023-09-18T11:55:43;11.63;;;7.88;;
77430;SDS011;66498;48.564;19.272;2023-09-18T11:58:08;8.32;;;7.38;;
77430;SDS011;66498;48.564;19.272;2023-09-18T12:00:35;9.88;;;8.18;;
77430;SDS011;66498;48.564;19.272;2023-09-18T12:03:14;9.25;;;7.63;;
77430;SDS011;66498;48.564;19.272;2023-09-18T12:06:00;9.93;;;7.63;;
77430;SDS011;66498;48.564;19.272;2023-09-18T12:08:30;9.90;;;7.45;;
77430;SDS011;66498;48.564;19.272;2023-09-18T12:11:06;9.05;;;7.55;;
77430;SDS011;66498;48.564;19.272;2023-09-18T12:13:32;10.07;;;7.75;;
77430;SDS011;66498;48.564;19.272;2023-09-18T12:16:02;11.40;;;8.00;;
77430;SDS011;66498;48.564;19.272;2023-09-18T12:18:34;9.43;;;7.82;;
77430;SDS011;66498;48.564;19.272;2023-09-18T12:21:05;9.55;;;7.72;;
77430;SDS011;66498;48.564;19.272;2023-09-18T12:23:38;9.85;;;7.60;;
77430;SDS011;66498;48.564;19.272;2023-09-18T12:26:04;9.03;;;7.77;;
77430;SDS011;66498;48.564;19.272;2023-09-18T12:28:35;8.73;;;7.70;;
77430;SDS011;66498;48.564;19.272;2023-09-18T12:31:03;9.48;;;7.78;;
77430;SDS011;66498;48.564;19.272;2023-09-18T12:33:35;10.45;;;7.80;;
77430;SDS011;66498;48.564;19.272;2023-09-18T12:36:02;11.15;;;8.27;;
77430;SDS011;66498;48.564;19.272;2023-09-18T12:38:32;10.85;;;7.95;;
77430;SDS011;66498;48.564;19.272;2023-09-18T12:41:01;10.63;;;8.27;;
77430;SDS011;66498;48.564;19.272;2023-09-18T12:43:40;9.77;;;8.10;;
77430;SDS011;66498;48.564;19.272;2023-09-18T12:46:07;9.73;;;7.70;;
77430;SDS011;66498;48.564;19.272;2023-09-18T12:48:37;11.35;;;7.72;;
77430;SDS011;66498;48.564;19.272;2023-09-18T12:51:07;8.07;;;7.10;;
77430;SDS011;66498;48.564;19.272;2023-09-18T12:53:36;9.93;;;8.13;;
77430;SDS011;66498;48.564;19.272;2023-09-18T12:58:35;8.68;;;6.90;;
77430;SDS011;66498;48.564;19.272;2023-09-18T13:01:05;9.30;;;7.75;;
77430;SDS011;66498;48.564;19.272;2023-09-18T13:03:47;8.55;;;7.45;;
77430;SDS011;66498;48.564;19.272;2023-09-18T13:06:17;9.15;;;7.35;;
77430;SDS011;66498;48.564;19.272;2023-09-18T13:08:44;8.40;;;7.38;;
77430;SDS011;66498;48.564;19.272;2023-09-18T13:11:09;10.00;;;7.65;;
77430;SDS011;66498;48.564;19.272;2023-09-18T13:13:41;8.82;;;7.50;;
77430;SDS011;66498;48.564;19.272;2023-09-18T13:16:09;11.75;;;7.57;;
77430;SDS011;66498;48.564;19.272;2023-09-18T13:18:35;9.70;;;6.55;;
77430;SDS011;66498;48.564;19.272;2023-09-18T13:21:10;9.00;;;6.97;;
77430;SDS011;66498;48.564;19.272;2023-09-18T13:23:39;8.55;;;7.10;;
77430;SDS011;66498;48.564;19.272;2023-09-18T13:26:05;10.98;;;7.35;;
77430;SDS011;66498;48.564;19.272;2023-09-18T13:28:33;9.20;;;6.90;;
77430;SDS011;66498;48.564;19.272;2023-09-18T13:31:01;9.63;;;6.88;;
77430;SDS011;66498;48.564;19.272;2023-09-18T13:33:33;10.23;;;7.30;;
77430;SDS011;66498;48.564;19.272;2023-09-18T13:36:04;8.23;;;6.82;;
77430;SDS011;66498;48.564;19.272;2023-09-18T13:38:30;10.35;;;7.43;;
77430;SDS011;66498;48.564;19.272;2023-09-18T13:40:56;9.55;;;7.10;;
77430;SDS011;66498;48.564;19.272;2023-09-18T13:43:23;10.55;;;7.10;;
77430;SDS011;66498;48.564;19.272;2023-09-18T13:45:49;8.80;;;7.13;;
77430;SDS011;66498;48.564;19.272;2023-09-18T13:48:19;7.75;;;6.82;;
77430;SDS011;66498;48.564;19.272;2023-09-18T13:50:44;10.20;;;7.07;;
77430;SDS011;66498;48.564;19.272;2023-09-18T13:53:12;8.98;;;6.97;;
77430;SDS011;66498;48.564;19.272;2023-09-18T13:55:39;8.50;;;6.97;;
77430;SDS011;66498;48.564;19.272;2023-09-18T13:58:04;9.68;;;6.60;;
77430;SDS011;66498;48.564;19.272;2023-09-18T14:00:30;8.23;;;6.95;;
77430;SDS011;66498;48.564;19.272;2023-09-18T14:02:56;7.95;;;6.78;;
77430;SDS011;66498;48.564;19.272;2023-09-18T14:05:22;8.80;;;6.72;;
77430;SDS011;66498;48.564;19.272;2023-09-18T14:07:47;9.23;;;7.05;;
77430;SDS011;66498;48.564;19.272;2023-09-18T14:10:13;8.20;;;7.10;;
77430;SDS011;66498;48.564;19.272;2023-09-18T14:12:39;9.65;;;6.90;;
77430;SDS011;66498;48.564;19.272;2023-09-18T14:15:06;9.45;;;6.95;;
77430;SDS011;66498;48.564;19.272;2023-09-18T14:17:32;9.23;;;6.82;;
77430;SDS011;66498;48.564;19.272;2023-09-18T14:19:59;9.10;;;6.75;;
77430;SDS011;66498;48.564;19.272;2023-09-18T14:22:24;9.02;;;6.72;;
77430;SDS011;66498;48.564;19.272;2023-09-18T14:24:53;11.05;;;7.57;;
77430;SDS011;66498;48.564;19.272;2023-09-18T14:27:19;16.42;;;8.23;;
77430;SDS011;66498;48.564;19.272;2023-09-18T14:29:44;9.10;;;6.60;;
77430;SDS011;66498;48.564;19.272;2023-09-18T14:32:10;8.65;;;6.47;;
77430;SDS011;66498;48.564;19.272;2023-09-18T14:34:36;8.05;;;6.80;;
77430;SDS011;66498;48.564;19.272;2023-09-18T14:37:02;12.00;;;7.13;;
77430;SDS011;66498;48.564;19.272;2023-09-18T14:39:33;9.32;;;7.28;;
77430;SDS011;66498;48.564;19.272;2023-09-18T14:41:59;9.00;;;6.90;;
77430;SDS011;66498;48.564;19.272;2023-09-18T14:44:26;8.38;;;7.15;;
77430;SDS011;66498;48.564;19.272;2023-09-18T14:46:57;9.25;;;6.90;;
77430;SDS011;66498;48.564;19.272;2023-09-18T14:49:24;7.57;;;6.63;;
77430;SDS011;66498;48.564;19.272;2023-09-18T14:51:53;8.73;;;7.25;;